Date,TemperatureHighF,TemperatureAvgF,TemperatureLowF,DewpointHighF,DewpointAvgF,DewpointLowF,HumidityHigh,HumidityAvg,HumidityLow,PressureMaxIn,PressureMinIn,WindSpeedMaxMPH,WindSpeedAvgMPH,GustSpeedMaxMPH,PrecipitationSumIn
2013-1-1,18,13,7,-100,-100,-100,0,0,100,0.00,40.00,9,4,12,0.00
2013-1-2,33,21,9,-100,-100,-100,0,0,100,0.00,40.00,8,4,13,0.00
2013-1-3,29,24,14,-100,-100,-100,0,0,100,0.00,40.00,10,6,20,0.00
2013-1-4,35,23,11,-100,-100,-100,0,0,100,0.00,40.00,10,6,18,0.00
2013-1-5,36,31,21,-100,-100,-100,0,0,100,0.00,40.00,9,5,17,0.01
2013-1-6,29,22,16,-100,-100,-100,0,0,100,0.00,40.00,11,5,21,0.01
2013-1-7,41,30,18,-100,-100,-100,0,0,100,0.00,40.00,12,6,21,0.00
2013-1-8,46,38,30,-100,-100,-100,0,0,100,0.00,40.00,10,4,15,0.00
2013-1-9,44,37,28,-100,-100,-100,0,0,100,0.00,40.00,9,4,15,0.00
2013-1-10,41,34,28,-100,-100,-100,0,0,100,0.00,40.00,13,7,16,0.47
2013-1-11,54,46,37,-100,-100,-100,0,0,100,0.00,40.00,13,6,17,0.46
2013-1-12,52,34,21,-100,-100,-100,0,0,100,0.00,40.00,12,7,23,0.01
2013-1-13,21,16,14,-100,-100,-100,0,0,100,0.00,40.00,10,6,21,0.00
2013-1-14,32,18,10,-100,-100,-100,0,0,100,0.00,40.00,5,3,11,0.04
2013-1-15,34,22,13,-100,-100,-100,0,0,100,0.00,40.00,5,2,8,0.02
2013-1-16,38,28,17,-100,-100,-100,0,0,100,0.00,40.00,12,5,17,0.00
2013-1-17,37,28,22,-100,-100,-100,0,0,100,0.00,40.00,10,5,16,0.00
2013-1-18,48,37,25,-100,-100,-100,0,0,100,0.00,40.00,15,8,25,0.00
2013-1-19,50,41,24,-100,-100,-100,0,0,100,0.00,40.00,18,8,34,0.00
2013-1-20,22,15,10,-100,-100,-100,0,0,100,0.00,40.00,13,7,26,0.00
2013-1-21,13,7,2,-100,-100,-100,0,0,100,0.00,40.00,14,8,26,0.00
2013-1-22,14,8,1,-100,-100,-100,0,0,100,0.00,40.00,7,5,16,0.00
2013-1-23,29,19,13,-100,-100,-100,0,0,100,0.00,40.00,12,6,25,0.00
2013-1-24,22,13,5,-100,-100,-100,0,0,100,0.00,40.00,14,8,20,0.00
2013-1-25,35,25,17,-100,-100,-100,0,0,100,0.00,40.00,13,6,22,0.00
2013-1-26,34,21,10,-100,-100,-100,0,0,100,0.00,40.00,7,4,14,0.00
2013-1-27,42,32,28,-100,-100,-100,0,0,100,0.00,40.00,9,4,16,0.48
2013-1-28,47,41,37,-100,-100,-100,0,0,100,0.00,40.00,11,6,14,0.04
2013-1-29,61,51,36,-100,-100,-100,0,0,100,0.00,40.00,11,6,18,0.91
2013-1-30,36,28,17,-100,-100,-100,0,0,100,0.00,40.00,16,10,30,0.72
2013-1-31,12,8,1,-100,-100,-100,0,0,100,0.00,40.00,15,9,26,0.00
2013-2-1,20,8,-2,-100,-100,-100,0,0,100,0.00,40.00,10,6,17,0.00
2013-2-2,26,20,16,-100,-100,-100,0,0,100,0.00,40.00,16,6,20,0.00
2013-2-3,25,21,16,-100,-100,-100,0,0,100,0.00,40.00,11,5,23,0.00
2013-2-4,27,24,18,-100,-100,-100,0,0,100,0.00,40.00,14,6,20,0.00
2013-2-5,35,28,17,-100,-100,-100,0,0,100,0.00,40.00,11,5,21,0.00
2013-2-6,46,35,23,-100,-100,-100,0,0,100,0.00,40.00,8,4,13,0.00
2013-2-7,39,36,32,-100,-100,-100,0,0,100,0.00,40.00,11,4,18,0.77
2013-2-8,32,29,27,-100,-100,-100,0,0,100,0.00,40.00,12,6,19,0.01
2013-2-9,39,31,26,-100,-100,-100,0,0,100,0.00,40.00,11,5,19,0.00
2013-2-10,50,41,31,-100,-100,-100,0,0,100,0.00,40.00,19,9,32,0.40
2013-2-11,38,32,28,-100,-100,-100,0,0,100,0.00,40.00,18,11,34,0.01
2013-2-12,39,30,25,-100,-100,-100,0,0,100,0.00,40.00,10,5,18,0.00
2013-2-13,43,35,27,-100,-100,-100,0,0,100,0.00,40.00,8,4,10,0.00
2013-2-14,41,37,31,-100,-100,-100,0,0,100,0.00,40.00,14,6,28,0.00
2013-2-15,30,25,19,-100,-100,-100,0,0,100,0.00,40.00,11,7,23,0.00
2013-2-16,25,19,14,-100,-100,-100,0,0,100,0.00,40.00,11,5,21,0.00
2013-2-17,39,26,13,-100,-100,-100,0,0,100,0.00,40.00,11,6,22,0.00
2013-2-18,54,37,20,-100,-100,-100,0,0,100,0.00,40.00,13,5,21,0.23
2013-2-19,21,14,8,-100,-100,-100,0,0,100,0.00,40.00,13,2,23,0.01
2013-2-20,25,14,4,-100,-100,-100,0,0,100,0.00,40.00,10,5,16,0.00
2013-2-21,28,23,15,-100,-100,-100,0,0,100,0.00,40.00,24,14,34,0.00
2013-2-22,31,27,24,-100,-100,-100,0,0,100,0.00,40.00,14,8,19,0.07
2013-2-23,31,26,22,-100,-100,-100,0,0,100,0.00,40.00,8,5,13,0.01
2013-2-24,43,28,16,-100,-100,-100,0,0,100,0.00,40.00,5,2,10,0.00
2013-2-25,41,32,24,-100,-100,-100,0,0,100,0.00,40.00,14,7,17,0.00
2013-2-26,35,32,29,-100,-100,-100,0,0,100,0.00,40.00,23,16,30,0.06
2013-2-27,32,30,29,-100,-100,-100,0,0,100,0.00,40.00,14,7,17,0.40
2013-2-28,35,32,30,-100,-100,-100,0,0,100,0.00,40.00,11,6,18,0.01
2013-3-1,30,27,25,-100,-100,-100,0,0,100,0.00,40.00,16,10,28,0.01
2013-3-2,30,23,16,-100,-100,-100,0,0,100,0.00,40.00,10,5,17,0.01
2013-3-3,38,25,12,-100,-100,-100,0,0,100,0.00,40.00,8,3,11,0.01
2013-3-4,36,30,25,-100,-100,-100,0,0,100,0.00,40.00,20,11,28,0.00
2013-3-5,32,30,28,-100,-100,-100,0,0,100,0.00,40.00,15,7,23,0.25
2013-3-6,29,26,22,-100,-100,-100,0,0,100,0.00,40.00,14,7,20,0.03
2013-3-7,38,29,23,-100,-100,-100,0,0,100,0.00,40.00,8,4,13,0.00
2013-3-8,42,32,22,-100,-100,-100,0,0,100,0.00,40.00,10,6,16,0.00
2013-3-9,43,38,35,-100,-100,-100,0,0,100,0.00,40.00,9,5,15,0.47
2013-3-10,45,42,37,-100,-100,-100,0,0,100,0.00,40.00,9,4,12,1.22
2013-3-11,37,33,29,-100,-100,-100,0,0,100,0.00,40.00,13,6,23,0.27
2013-3-12,34,29,26,-100,-100,-100,0,0,100,0.00,40.00,13,8,28,0.03
2013-3-13,34,27,21,-100,-100,-100,0,0,100,0.00,40.00,11,7,22,0.01
2013-3-14,50,35,25,-100,-100,-100,0,0,100,0.00,40.00,10,4,17,0.00
2013-3-15,44,37,29,-100,-100,-100,0,0,100,0.00,40.00,12,5,14,0.00
2013-3-16,36,34,32,-100,-100,-100,0,0,100,0.00,40.00,10,8,15,0.00
2013-3-17,37,31,25,-100,-100,-100,0,0,100,0.00,40.00,16,11,20,0.00
2013-3-18,36,30,22,-100,-100,-100,0,0,100,0.00,40.00,17,9,27,0.01
2013-3-19,32,24,17,-100,-100,-100,0,0,100,0.00,40.00,16,9,27,0.00
2013-3-20,27,20,14,-100,-100,-100,0,0,100,0.00,40.00,17,10,27,0.00
2013-3-21,33,22,12,-100,-100,-100,0,0,100,0.00,40.00,9,4,16,0.00
2013-3-22,45,31,19,-100,-100,-100,0,0,100,0.00,40.00,8,3,11,0.00
2013-3-23,44,35,28,-100,-100,-100,0,0,100,0.00,40.00,14,6,20,0.00
2013-3-24,34,30,29,-100,-100,-100,0,0,100,0.00,40.00,15,10,23,0.10
2013-3-25,36,31,29,-100,-100,-100,0,0,100,0.00,40.00,15,9,24,0.03
2013-3-26,38,34,27,-100,-100,-100,0,0,100,0.00,40.00,12,6,19,0.01
2013-3-27,47,38,30,-100,-100,-100,0,0,100,0.00,40.00,7,3,10,0.00
2013-3-28,54,41,28,-100,-100,-100,0,0,100,0.00,40.00,4,2,6,0.00
2013-3-29,59,46,33,-100,-100,-100,0,0,100,0.00,40.00,8,3,11,0.00
2013-3-30,55,47,38,-100,-100,-100,0,0,100,0.00,40.00,10,5,17,0.00
2013-3-31,51,45,37,-100,-100,-100,0,0,100,0.00,40.00,14,7,27,0.00
2013-4-1,39,33,27,-100,-100,-100,0,0,100,0.00,40.00,11,8,20,0.00
2013-4-2,43,34,25,-100,-100,-100,0,0,100,0.00,40.00,11,5,24,0.00
2013-4-3,50,36,27,-100,-100,-100,0,0,100,0.00,40.00,9,5,14,0.00
2013-4-4,59,46,33,-100,-100,-100,0,0,100,0.00,40.00,10,4,12,0.00
2013-4-5,54,46,37,-100,-100,-100,0,0,100,0.00,40.00,13,8,25,0.00
2013-4-6,67,54,40,-100,-100,-100,0,0,100,0.00,40.00,17,10,37,0.06
2013-4-7,65,52,39,-100,-100,-100,0,0,100,0.00,40.00,9,5,17,0.06
2013-4-8,70,54,46,-100,-100,-100,0,0,100,0.00,40.00,16,7,22,0.75
2013-4-9,75,55,44,-100,-100,-100,0,0,100,0.00,40.00,18,11,22,0.03
2013-4-10,43,40,37,-100,-100,-100,0,0,100,0.00,40.00,24,14,32,1.61
2013-4-11,47,42,38,-100,-100,-100,0,0,100,0.00,40.00,24,9,30,0.64
2013-4-12,40,38,36,-100,-100,-100,0,0,100,0.00,40.00,12,8,24,0.02
2013-4-13,49,41,34,-100,-100,-100,0,0,100,0.00,40.00,12,7,19,0.00
2013-4-14,76,56,41,-100,-100,-100,0,0,100,0.00,40.00,15,10,25,0.41
2013-4-15,60,50,40,-100,-100,-100,0,0,100,0.00,40.00,11,5,25,0.44
2013-4-16,51,44,35,-100,-100,-100,0,0,100,0.00,40.00,9,5,14,0.03
2013-4-17,51,44,40,-100,-100,-100,0,0,100,0.00,40.00,20,13,27,1.79
2013-4-18,62,51,38,-100,-100,-100,0,0,100,0.00,40.00,15,8,26,2.07
2013-4-19,38,36,34,-100,-100,-100,0,0,100,0.00,40.00,17,12,24,0.01
2013-4-20,50,39,30,-100,-100,-100,0,0,100,0.00,40.00,9,5,14,0.00
2013-4-21,60,48,38,-100,-100,-100,0,0,100,0.00,40.00,13,8,25,0.00
2013-4-22,70,58,47,-100,-100,-100,0,0,100,0.00,40.00,10,5,19,0.01
2013-4-23,54,42,37,-100,-100,-100,0,0,100,0.00,40.00,11,6,20,0.43
2013-4-24,51,43,34,-100,-100,-100,0,0,100,0.00,40.00,10,6,17,0.01
2013-4-25,55,46,36,-100,-100,-100,0,0,100,0.00,40.00,11,7,22,0.03
2013-4-26,65,56,46,-100,-100,-100,0,0,100,0.00,40.00,13,7,22,0.01
2013-4-27,68,57,47,-100,-100,-100,0,0,100,0.00,40.00,7,3,13,0.00
2013-4-28,74,61,50,-100,-100,-100,0,0,100,0.00,40.00,7,2,11,0.00
2013-4-29,80,65,52,-100,-100,-100,0,0,100,0.00,40.00,10,6,19,0.00
2013-4-30,86,76,65,-100,-100,-100,0,0,100,0.00,40.00,15,8,23,0.00
2013-5-1,86,73,60,-100,-100,-100,0,0,100,0.00,40.00,18,6,27,0.00
2013-5-2,59,48,39,-100,-100,-100,0,0,100,0.00,40.00,18,11,30,0.18
2013-5-3,51,41,37,-100,-100,-100,0,0,100,0.00,40.00,14,10,21,1.79
2013-5-4,68,58,51,-100,-100,-100,0,0,100,0.00,40.00,15,8,20,0.25
2013-5-5,74,62,53,-100,-100,-100,0,0,100,0.00,40.00,11,6,18,0.01
2013-5-6,75,65,54,-100,-100,-100,0,0,100,0.00,40.00,11,5,18,0.00
2013-5-7,82,67,54,-100,-100,-100,0,0,100,0.00,40.00,7,2,11,0.00
2013-5-8,78,67,54,-100,-100,-100,0,0,100,0.00,40.00,6,2,9,0.00
2013-5-9,72,63,60,-100,-100,-100,0,0,100,0.00,40.00,6,3,11,0.56
2013-5-10,60,51,47,-100,-100,-100,0,0,100,0.00,40.00,15,7,22,0.33
2013-5-11,55,51,46,-100,-100,-100,0,0,100,0.00,40.00,18,8,32,0.01
2013-5-12,57,48,39,-100,-100,-100,0,0,100,0.00,40.00,12,6,22,0.01
2013-5-13,69,57,43,-100,-100,-100,0,0,100,0.00,40.00,6,3,11,0.00
2013-5-14,95,74,57,-100,-100,-100,0,0,100,0.00,40.00,10,6,15,0.00
2013-5-15,85,75,67,-100,-100,-100,0,0,100,0.00,40.00,13,5,18,0.00
2013-5-16,87,68,59,-100,-100,-100,0,0,100,0.00,40.00,8,3,16,0.00
2013-5-17,85,72,64,-100,-100,-100,0,0,100,0.00,40.00,11,4,17,0.00
2013-5-18,86,73,62,-100,-100,-100,0,0,100,0.00,40.00,8,4,13,0.00
2013-5-19,89,75,66,-100,-100,-100,0,0,100,0.00,40.00,12,6,18,0.39
2013-5-20,81,71,62,-100,-100,-100,0,0,100,0.00,40.00,12,6,23,0.38
2013-5-21,76,70,62,-100,-100,-100,0,0,100,0.00,40.00,10,6,17,0.01
2013-5-22,67,63,59,-100,-100,-100,0,0,100,0.00,40.00,11,6,17,0.01
2013-5-23,66,59,54,-100,-100,-100,0,0,100,0.00,40.00,14,8,22,0.08
2013-5-24,71,57,44,-100,-100,-100,0,0,100,0.00,40.00,11,6,14,0.01
2013-5-25,59,51,47,-100,-100,-100,0,0,100,0.00,40.00,12,7,17,0.77
2013-5-26,58,53,49,-100,-100,-100,0,0,100,0.00,40.00,13,9,17,3.22
2013-5-27,72,62,56,-100,-100,-100,0,0,100,0.00,40.00,14,8,20,2.77
2013-5-28,77,69,64,-100,-100,-100,0,0,100,0.00,40.00,11,5,16,0.30
2013-5-29,87,74,62,-100,-100,-100,0,0,100,0.00,40.00,8,4,18,0.30
2013-5-30,77,72,70,-100,-100,-100,0,0,100,0.00,40.00,9,4,14,0.01
2013-5-31,75,72,69,-100,-100,-100,0,0,100,0.00,40.00,13,5,23,0.00
2013-6-1,75,68,63,-100,-100,-100,0,0,100,0.00,40.00,13,5,19,0.00
2013-6-2,64,59,54,-100,-100,-100,0,0,100,0.00,40.00,11,6,19,0.00
2013-6-3,73,62,52,-100,-100,-100,0,0,100,0.00,40.00,7,2,13,0.00
2013-6-4,73,65,55,-100,-100,-100,0,0,100,0.00,40.00,14,4,22,0.00
2013-6-5,66,62,58,-100,-100,-100,0,0,100,0.00,40.00,10,6,14,0.11
2013-6-6,65,60,56,-100,-100,-100,0,0,100,0.00,40.00,9,5,15,0.34
2013-6-7,73,62,57,-100,-100,-100,0,0,100,0.00,40.00,9,5,13,0.01
2013-6-8,79,68,58,-100,-100,-100,0,0,100,0.00,40.00,6,2,10,0.00
2013-6-9,73,67,63,-100,-100,-100,0,0,100,0.00,40.00,9,5,16,0.09
2013-6-10,77,67,60,-100,-100,-100,0,0,100,0.00,40.00,8,2,14,0.01
2013-6-11,91,75,62,-100,-100,-100,0,0,100,0.00,40.00,6,2,11,0.00
2013-6-12,89,79,71,-100,-100,-100,0,0,100,0.00,40.00,13,6,21,0.00
2013-6-13,82,73,63,-100,-100,-100,0,0,100,0.00,40.00,14,7,23,0.00
2013-6-14,82,70,61,-100,-100,-100,0,0,100,0.00,40.00,10,5,13,0.00
2013-6-15,84,73,66,-100,-100,-100,0,0,100,0.00,40.00,11,4,24,0.02
2013-6-16,85,73,67,-100,-100,-100,0,0,100,0.00,40.00,7,4,11,0.01
2013-6-17,86,78,67,-100,-100,-100,0,0,100,0.00,40.00,7,3,12,0.00
2013-6-18,81,72,62,-100,-100,-100,0,0,100,0.00,40.00,15,9,20,0.00
2013-6-19,85,72,59,-100,-100,-100,0,0,100,0.00,40.00,12,6,18,0.00
2013-6-20,93,77,65,-100,-100,-100,0,0,100,0.00,40.00,6,3,11,0.00
2013-6-22,95,83,72,-100,-100,-100,0,0,100,0.00,40.00,14,6,25,0.01
2013-6-23,86,77,70,-100,-100,-100,0,0,100,0.00,40.00,9,4,16,0.00
2013-6-24,82,69,64,-100,-100,-100,0,0,100,0.00,40.00,15,3,18,3.28
2013-6-25,88,78,68,-100,-100,-100,0,0,100,0.00,40.00,7,3,12,0.03
2013-6-26,87,77,67,-100,-100,-100,0,0,100,0.00,40.00,12,3,16,0.35
2013-6-27,87,79,71,-100,-100,-100,0,0,100,0.00,40.00,12,5,19,0.01
2013-6-28,82,76,70,-100,-100,-100,0,0,100,0.00,40.00,15,7,32,0.00
2013-6-29,71,67,64,-100,-100,-100,0,0,100,0.00,40.00,15,7,24,0.15
2013-6-30,78,70,63,-100,-100,-100,0,0,100,0.00,40.00,13,9,20,0.02
2013-7-1,78,70,61,-100,-100,-100,0,0,100,0.00,40.00,16,9,23,0.00
2013-7-2,77,70,62,-100,-100,-100,0,0,100,0.00,40.00,11,6,15,0.00
2013-7-3,79,69,58,-100,-100,-100,0,0,100,0.00,40.00,8,3,10,0.00
2013-7-4,88,74,63,-100,-100,-100,0,0,100,0.00,40.00,5,2,10,0.00
2013-7-5,89,78,66,-100,-100,-100,0,0,100,0.00,40.00,5,2,10,0.00
2013-7-6,91,76,67,-100,-100,-100,0,0,100,0.00,40.00,4,2,8,0.00
2013-7-7,91,81,71,-100,-100,-100,0,0,100,0.00,40.00,5,2,12,0.00
2013-7-8,87,79,71,-100,-100,-100,0,0,100,0.00,40.00,13,4,20,0.29
2013-7-9,91,80,74,-100,-100,-100,0,0,100,0.00,40.00,11,2,22,0.16
2013-7-10,83,76,71,-100,-100,-100,0,0,100,0.00,40.00,13,6,19,0.01
2013-7-11,82,73,64,-100,-100,-100,0,0,100,0.00,40.00,11,4,17,0.00
2013-7-12,87,75,64,-100,-100,-100,0,0,100,0.00,40.00,4,2,9,0.00
2013-7-13,85,75,64,-100,-100,-100,0,0,100,0.00,40.00,8,4,16,0.00
2013-7-14,90,80,68,-100,-100,-100,0,0,100,0.00,40.00,9,5,14,0.00
2013-7-15,94,82,74,-100,-100,-100,0,0,100,0.00,40.00,8,5,16,0.00
2013-7-16,96,84,75,-100,-100,-100,0,0,100,0.00,40.00,4,2,8,0.00
2013-7-17,94,85,76,-100,-100,-100,0,0,100,0.00,40.00,5,3,9,0.00
2013-7-18,96,87,77,-100,-100,-100,0,0,100,0.00,40.00,7,4,12,0.00
2013-7-19,94,85,78,-100,-100,-100,0,0,100,0.00,40.00,12,6,20,0.00
2013-7-20,88,80,70,-100,-100,-100,0,0,100,0.00,40.00,8,4,15,0.00
2013-7-21,87,77,71,-100,-100,-100,0,0,100,0.00,40.00,5,2,10,0.00
2013-7-22,87,76,66,-100,-100,-100,0,0,100,0.00,40.00,25,3,39,0.73
2013-7-23,77,72,67,-100,-100,-100,0,0,100,0.00,40.00,11,6,18,0.73
2013-7-24,76,68,60,-100,-100,-100,0,0,100,0.00,40.00,10,5,13,0.00
2013-7-25,84,72,60,-100,-100,-100,0,0,100,0.00,40.00,7,2,12,0.00
2013-7-26,78,69,65,-100,-100,-100,0,0,100,0.00,40.00,11,4,18,0.71
2013-7-27,64,60,56,-100,-100,-100,0,0,100,0.00,40.00,11,7,21,0.01
2013-7-28,70,63,57,-100,-100,-100,0,0,100,0.00,40.00,13,6,17,0.00
2013-7-29,80,67,58,-100,-100,-100,0,0,100,0.00,40.00,5,2,7,0.00
2013-7-30,68,66,62,-100,-100,-100,0,0,100,0.00,40.00,9,5,12,0.44
2013-7-31,80,70,64,-100,-100,-100,0,0,100,0.00,40.00,7,4,12,0.01
2013-8-1,82,74,64,-100,-100,-100,0,0,100,0.00,40.00,6,2,12,0.00
2013-8-2,82,75,69,-100,-100,-100,0,0,100,0.00,40.00,10,5,14,0.01
2013-8-3,81,72,65,-100,-100,-100,0,0,100,0.00,40.00,7,4,13,0.01
2013-8-4,81,72,61,-100,-100,-100,0,0,100,0.00,40.00,7,3,12,0.00
2013-8-5,75,68,62,-100,-100,-100,0,0,100,0.00,40.00,12,3,16,0.72
2013-8-6,85,74,67,-100,-100,-100,0,0,100,0.00,40.00,5,2,9,0.01
2013-8-7,85,77,69,-100,-100,-100,0,0,100,0.00,40.00,10,5,16,0.00
2013-8-8,81,72,63,-100,-100,-100,0,0,100,0.00,40.00,11,5,16,0.00
2013-8-9,80,73,66,-100,-100,-100,0,0,100,0.00,40.00,7,3,11,0.00
2013-8-10,80,71,61,-100,-100,-100,0,0,100,0.00,40.00,9,4,18,0.00
2013-8-11,83,73,64,-100,-100,-100,0,0,100,0.00,40.00,7,3,13,0.00
2013-8-12,83,74,69,-100,-100,-100,0,0,100,0.00,40.00,11,5,18,0.00
2013-8-13,73,66,61,-100,-100,-100,0,0,100,0.00,40.00,16,7,19,0.00
2013-8-14,78,65,56,-100,-100,-100,0,0,100,0.00,40.00,6,2,11,0.00
2013-8-15,77,62,61,-100,-100,-100,0,0,100,0.00,40.00,4,1,8,0.00
2013-8-16,81,69,58,-100,-100,-100,0,0,100,0.00,40.00,8,3,13,0.00
2013-8-17,83,70,60,-100,-100,-100,0,0,100,0.00,40.00,9,4,14,0.00
2013-8-18,85,72,61,-100,-100,-100,0,0,100,0.00,40.00,6,2,11,0.00
2013-8-19,85,70,64,-100,-100,-100,0,0,100,0.00,40.00,7,2,10,0.00
2013-8-20,89,77,69,-100,-100,-100,0,0,100,0.00,40.00,5,2,9,0.00
2013-8-21,90,79,71,-100,-100,-100,0,0,100,0.00,40.00,8,3,14,0.00
2013-8-22,79,75,71,-100,-100,-100,0,0,100,0.00,40.00,14,5,19,0.00
2013-8-23,85,74,65,-100,-100,-100,0,0,100,0.00,40.00,13,6,18,0.00
2013-8-24,90,76,64,-100,-100,-100,0,0,100,0.00,40.00,8,3,12,0.00
2013-8-25,92,80,72,-100,-100,-100,0,0,100,0.00,40.00,8,3,16,0.00
2013-8-26,94,81,70,-100,-100,-100,0,0,100,0.00,40.00,6,3,12,0.00
2013-8-27,93,81,75,-100,-100,-100,0,0,100,0.00,40.00,9,5,17,0.00
2013-8-28,95,88,80,-100,-100,-100,0,0,100,0.00,40.00,11,5,15,0.00
2013-8-29,90,80,74,-100,-100,-100,0,0,100,0.00,40.00,12,6,14,0.00
2013-8-30,97,84,74,-100,-100,-100,0,0,100,0.00,40.00,20,4,28,0.00
2013-8-31,86,77,71,-100,-100,-100,0,0,100,0.00,40.00,16,7,21,0.00
2013-9-1,88,76,68,-100,-100,-100,0,0,100,0.00,40.00,10,5,22,0.00
2013-9-2,77,68,61,-100,-100,-100,0,0,100,0.00,40.00,10,6,15,0.00
2013-9-3,79,66,54,-100,-100,-100,0,0,100,0.00,40.00,4,2,7,0.00
2013-9-4,86,72,59,-100,-100,-100,0,0,100,0.00,40.00,5,2,9,0.00
2013-9-5,88,77,68,-100,-100,-100,0,0,100,0.00,40.00,13,6,18,0.00
2013-9-6,89,75,62,-100,-100,-100,0,0,100,0.00,40.00,9,3,15,0.00
2013-9-7,93,79,69,-100,-100,-100,0,0,100,0.00,40.00,7,3,10,0.00
2013-9-8,87,78,71,-100,-100,-100,0,0,100,0.00,40.00,17,9,22,0.00
2013-9-9,99,83,71,-100,-100,-100,0,0,100,0.00,40.00,7,4,12,0.00
2013-9-10,96,84,74,-100,-100,-100,0,0,100,0.00,40.00,11,5,16,0.00
2013-9-11,83,78,74,-100,-100,-100,0,0,100,0.00,40.00,8,4,12,0.00
2013-9-12,77,72,63,-100,-100,-100,0,0,100,0.00,40.00,13,7,21,0.00
2013-9-13,70,61,52,-100,-100,-100,0,0,100,0.00,40.00,12,6,18,0.00
2013-9-14,76,61,50,-100,-100,-100,0,0,100,0.00,40.00,6,2,9,0.00
2013-9-15,63,61,56,-100,-100,-100,0,0,100,0.00,40.00,9,4,17,0.60
2013-9-16,68,59,54,-100,-100,-100,0,0,100,0.00,40.00,13,8,17,0.06
2013-9-17,71,61,50,-100,-100,-100,0,0,100,0.00,40.00,10,5,13,0.00
2013-9-18,78,66,62,-100,-100,-100,0,0,100,0.00,40.00,3,1,8,0.08
2013-9-19,93,79,67,-100,-100,-100,0,0,100,0.00,40.00,14,4,21,0.31
2013-9-20,67,65,60,-100,-100,-100,0,0,100,0.00,40.00,11,6,18,0.36
2013-9-21,69,58,49,-100,-100,-100,0,0,100,0.00,40.00,10,5,17,0.01
2013-9-22,73,60,50,-100,-100,-100,0,0,100,0.00,40.00,7,4,11,0.00
2013-9-23,77,62,50,-100,-100,-100,0,0,100,0.00,40.00,10,6,15,0.00
2013-9-24,75,63,52,-100,-100,-100,0,0,100,0.00,40.00,15,8,18,0.00
2013-9-25,78,65,54,-100,-100,-100,0,0,100,0.00,40.00,14,7,17,0.00
2013-9-26,84,68,54,-100,-100,-100,0,0,100,0.00,40.00,11,6,16,0.00
2013-9-27,86,71,58,-100,-100,-100,0,0,100,0.00,40.00,6,3,12,0.00
2013-9-28,78,66,56,-100,-100,-100,0,0,100,0.00,40.00,9,3,18,0.12
2013-9-29,74,60,51,-100,-100,-100,0,0,100,0.00,40.00,5,2,7,0.11
2013-9-30,80,64,51,-100,-100,-100,0,0,100,0.00,40.00,4,2,11,0.00
2013-10-1,77,73,69,-100,-100,-100,0,0,100,0.00,40.00,3,1,7,0.00
2013-10-2,88,72,64,-100,-100,-100,0,0,100,0.00,40.00,13,4,18,0.00
2013-10-3,80,72,67,-100,-100,-100,0,0,100,0.00,40.00,6,2,9,0.15
2013-10-4,78,71,66,-100,-100,-100,0,0,100,0.00,40.00,11,3,13,0.11
2013-10-5,75,69,55,-100,-100,-100,0,0,100,0.00,40.00,8,3,16,0.01
2013-10-6,53,48,44,-100,-100,-100,0,0,100,0.00,40.00,8,4,14,0.01
2013-10-7,72,57,45,-100,-100,-100,0,0,100,0.00,40.00,9,5,14,0.01
2013-10-8,80,63,49,-100,-100,-100,0,0,100,0.00,40.00,4,1,8,0.00
2013-10-9,77,63,51,-100,-100,-100,0,0,100,0.00,40.00,7,2,13,0.00
2013-10-10,80,62,49,-100,-100,-100,0,0,100,0.00,40.00,4,2,10,0.00
2013-10-11,79,66,56,-100,-100,-100,0,0,100,0.00,40.00,5,2,12,0.00
2013-10-12,69,63,56,-100,-100,-100,0,0,100,0.00,40.00,10,5,21,0.00
2013-10-13,68,55,46,-100,-100,-100,0,0,100,0.00,40.00,6,3,10,0.00
2013-10-14,65,54,42,-100,-100,-100,0,0,100,0.00,40.00,11,5,20,0.00
2013-10-15,65,58,51,-100,-100,-100,0,0,100,0.00,40.00,13,6,19,0.02
2013-10-16,52,50,48,-100,-100,-100,0,0,100,0.00,40.00,12,7,18,0.01
2013-10-17,60,52,47,-100,-100,-100,0,0,100,0.00,40.00,9,4,14,0.01
2013-10-18,50,46,43,-100,-100,-100,0,0,100,0.00,40.00,10,6,20,0.01
2013-10-19,53,45,39,-100,-100,-100,0,0,100,0.00,40.00,12,5,20,0.00
2013-10-20,60,51,42,-100,-100,-100,0,0,100,0.00,40.00,11,3,15,0.00
2013-10-21,53,43,39,-100,-100,-100,0,0,100,0.00,40.00,12,6,22,0.00
2013-10-22,38,36,33,-100,-100,-100,0,0,100,0.00,40.00,11,5,15,0.36
2013-10-23,42,37,32,-100,-100,-100,0,0,100,0.00,40.00,8,6,15,0.01
2013-10-24,40,36,32,-100,-100,-100,0,0,100,0.00,40.00,11,6,18,0.00
2013-10-25,53,40,30,-100,-100,-100,0,0,100,0.00,40.00,10,4,19,0.00
2013-10-26,52,46,41,-100,-100,-100,0,0,100,0.00,40.00,15,7,23,0.00
2013-10-27,57,44,33,-100,-100,-100,0,0,100,0.00,40.00,9,3,14,0.00
2013-10-28,58,44,37,-100,-100,-100,0,0,100,0.00,40.00,16,8,21,0.00
2013-10-29,56,46,38,-100,-100,-100,0,0,100,0.00,40.00,17,9,22,0.00
2013-10-30,59,54,52,-100,-100,-100,0,0,100,0.00,40.00,10,4,12,1.68
2013-10-31,62,54,44,-100,-100,-100,0,0,100,0.00,40.00,10,5,18,1.82
2013-11-1,49,46,44,-100,-100,-100,0,0,100,0.00,40.00,9,6,17,0.03
2013-11-2,50,42,37,-100,-100,-100,0,0,100,0.00,40.00,11,5,23,0.01
2013-11-3,54,43,32,-100,-100,-100,0,0,100,0.00,40.00,8,4,15,0.00
2013-11-4,56,50,45,-100,-100,-100,0,0,100,0.00,40.00,9,3,16,0.00
2013-11-5,55,53,51,-100,-100,-100,0,0,100,0.00,40.00,7,2,14,0.13
2013-11-6,56,45,35,-100,-100,-100,0,0,100,0.00,40.00,13,6,20,0.43
2013-11-7,44,36,30,-100,-100,-100,0,0,100,0.00,40.00,10,4,16,0.01
2013-11-8,50,42,30,-100,-100,-100,0,0,100,0.00,40.00,9,3,14,0.00
2013-11-9,56,49,42,-100,-100,-100,0,0,100,0.00,40.00,15,8,26,0.00
2013-11-10,48,40,32,-100,-100,-100,0,0,100,0.00,40.00,8,4,15,0.00
2013-11-11,48,38,24,-100,-100,-100,0,0,100,0.00,40.00,13,7,20,0.07
2013-11-12,30,24,19,-100,-100,-100,0,0,100,0.00,40.00,9,6,17,0.01
2013-11-13,43,31,21,-100,-100,-100,0,0,100,0.00,40.00,11,6,21,0.00
2013-11-14,52,42,35,-100,-100,-100,0,0,100,0.00,40.00,12,6,18,0.00
2013-11-15,55,44,38,-100,-100,-100,0,0,100,0.00,40.00,7,4,10,0.00
2013-11-16,60,52,42,-100,-100,-100,0,0,100,0.00,40.00,11,5,18,0.03
2013-11-17,67,53,44,-100,-100,-100,0,0,100,0.00,40.00,13,8,24,0.40
2013-11-18,43,39,33,-100,-100,-100,0,0,100,0.00,40.00,14,7,20,0.01
2013-11-19,46,36,29,-100,-100,-100,0,0,100,0.00,40.00,9,5,13,0.00
2013-11-20,40,37,35,-100,-100,-100,0,0,100,0.00,40.00,10,5,18,0.42
2013-11-21,43,41,38,-100,-100,-100,0,0,100,0.00,40.00,8,4,13,0.04
2013-11-22,39,32,24,-100,-100,-100,0,0,100,0.00,40.00,13,8,21,0.05
2013-11-23,23,20,14,-100,-100,-100,0,0,100,0.00,40.00,15,8,23,0.01
2013-11-24,29,20,11,-100,-100,-100,0,0,100,0.00,40.00,7,4,11,0.00
2013-11-25,35,30,22,-100,-100,-100,0,0,100,0.00,40.00,11,6,17,0.00
2013-11-26,33,27,16,-100,-100,-100,0,0,100,0.00,40.00,15,7,28,0.00
2013-11-27,28,20,12,-100,-100,-100,0,0,100,0.00,40.00,9,4,16,0.00
2013-11-28,35,27,22,-100,-100,-100,0,0,100,0.00,40.00,9,4,14,0.00
2013-11-29,38,29,19,-100,-100,-100,0,0,100,0.00,40.00,6,3,12,0.00
2013-11-30,50,38,32,-100,-100,-100,0,0,100,0.00,40.00,6,3,11,0.00
2013-12-1,44,37,32,-100,-100,-100,0,0,100,0.00,40.00,9,3,11,0.00
2013-12-2,45,39,35,-100,-100,-100,0,0,100,0.00,40.00,10,6,16,0.04
2013-12-3,48,42,36,-100,-100,-100,0,0,100,0.00,40.00,8,4,10,0.01
2013-12-4,52,45,27,-100,-100,-100,0,0,100,0.00,40.00,12,4,22,0.00
2013-12-5,27,20,16,-100,-100,-100,0,0,100,0.00,40.00,13,8,20,0.00
2013-12-6,17,13,10,-100,-100,-100,0,0,100,0.00,40.00,9,6,18,0.00
2013-12-7,18,10,3,-100,-100,-100,0,0,100,0.00,40.00,7,5,13,0.00
2013-12-8,24,18,13,-100,-100,-100,0,0,100,0.00,40.00,16,9,21,0.00
2013-12-9,22,11,3,-100,-100,-100,0,0,100,0.00,40.00,11,6,17,0.00
2013-12-10,22,14,2,-100,-100,-100,0,0,100,0.00,40.00,15,6,28,0.00
2013-12-11,23,11,1,-100,-100,-100,0,0,100,0.00,40.00,13,5,23,0.00
2013-12-12,24,14,1,-100,-100,-100,0,0,100,0.00,40.00,9,4,16,0.00
2013-12-13,30,22,16,-100,-100,-100,0,0,100,0.00,40.00,13,6,17,0.00
2013-12-14,27,24,18,-100,-100,-100,0,0,100,0.00,40.00,14,9,21,0.00
2013-12-15,17,14,9,-100,-100,-100,0,0,100,0.00,40.00,9,5,18,0.00
2013-12-16,22,17,12,-100,-100,-100,0,0,100,0.00,40.00,8,5,10,0.00
2013-12-17,35,27,19,-100,-100,-100,0,0,100,0.00,40.00,12,7,21,0.06
2013-12-18,40,31,20,-100,-100,-100,0,0,100,0.00,40.00,10,4,18,0.01
2013-12-19,39,35,32,-100,-100,-100,0,0,100,0.00,40.00,11,5,14,0.15
2013-12-20,33,29,27,-100,-100,-100,0,0,100,0.00,40.00,15,8,19,0.20
2013-12-21,30,27,26,-100,-100,-100,0,0,100,0.00,40.00,13,6,18,0.01
2013-12-22,30,25,18,-100,-100,-100,0,0,100,0.00,40.00,13,8,20,0.00
2013-12-23,16,4,1,-100,-100,-100,0,0,100,0.00,40.00,8,7,15,0.00
2013-12-24,21,6,-6,-100,-100,-100,0,0,100,0.00,40.00,6,4,12,0.00
2013-12-25,27,24,20,-100,-100,-100,0,0,100,0.00,40.00,10,6,17,0.00
2013-12-26,36,28,18,-100,-100,-100,0,0,100,0.00,40.00,8,4,12,0.32
2013-12-27,40,32,23,-100,-100,-100,0,0,100,0.00,40.00,7,4,11,0.01
2013-12-28,47,40,34,-100,-100,-100,0,0,100,0.00,40.00,9,5,15,0.00
2013-12-29,41,21,1,-100,-100,-100,0,0,100,0.00,40.00,15,9,23,0.00
2013-12-30,15,6,-4,-100,-100,-100,0,0,100,0.00,40.00,8,2,19,0.00
2013-12-31,17,10,2,-100,-100,-100,0,0,100,0.00,40.00,15,5,20,0.00
2014-1-1,15,11,8,-100,-100,-100,0,0,100,0.00,40.00,16,12,24,0.00
2014-1-2,15,11,3,-100,-100,-100,0,0,100,0.00,40.00,12,7,19,0.00